createdAt,value
2022-07-25T00:00:34.369Z,17.48
2022-07-25T00:01:34.529Z,17.46
2022-07-25T00:02:34.360Z,17.63
2022-07-25T00:03:34.403Z,17.67
2022-07-25T00:04:34.454Z,17.6
2022-07-25T00:05:37.844Z,17.52
2022-07-25T00:06:34.429Z,17.45
2022-07-25T00:07:34.359Z,17.45
2022-07-25T00:08:34.359Z,17.49
2022-07-25T00:09:34.376Z,17.55
2022-07-25T00:10:34.603Z,17.54
2022-07-25T00:11:34.580Z,17.54
2022-07-25T00:12:34.360Z,17.55
2022-07-25T00:13:34.358Z,17.58
2022-07-25T00:14:34.357Z,17.57
2022-07-25T00:15:34.430Z,17.52
2022-07-25T00:16:34.433Z,17.5
2022-07-25T00:17:34.463Z,17.72
2022-07-25T00:18:34.391Z,17.73
2022-07-25T00:19:34.378Z,17.64
2022-07-25T00:20:34.419Z,17.56
2022-07-25T00:21:34.386Z,17.56
2022-07-25T00:22:34.387Z,17.52
2022-07-25T00:23:34.480Z,17.45
2022-07-25T00:24:34.413Z,17.4
2022-07-25T00:25:34.405Z,17.36
2022-07-25T00:26:39.492Z,17.4
2022-07-25T00:27:34.425Z,17.46
2022-07-25T00:28:34.494Z,17.41
2022-07-25T00:29:34.432Z,17.26
2022-07-25T00:30:34.362Z,17.23
2022-07-25T00:31:34.566Z,17.24
2022-07-25T00:32:34.379Z,17.25
2022-07-25T00:33:34.366Z,17.25
2022-07-25T00:34:34.406Z,17.22
2022-07-25T00:35:34.405Z,17.18
2022-07-25T00:36:34.522Z,17.19
2022-07-25T00:37:34.406Z,17.17
2022-07-25T00:38:34.356Z,17.23
2022-07-25T00:39:35.742Z,17.27
2022-07-25T00:40:34.361Z,17.28
2022-07-25T00:41:34.375Z,17.25
2022-07-25T00:42:34.358Z,17.26
2022-07-25T00:43:34.367Z,17.26
2022-07-25T00:44:34.369Z,17.39
2022-07-25T00:45:34.362Z,17.47
2022-07-25T00:46:34.441Z,17.47
2022-07-25T00:47:34.398Z,17.4
2022-07-25T00:48:34.428Z,17.36
2022-07-25T00:49:34.378Z,17.31
2022-07-25T00:50:34.391Z,17.26
2022-07-25T00:51:34.381Z,17.24
2022-07-25T00:52:34.369Z,17.17
2022-07-25T00:53:34.408Z,17.15
2022-07-25T00:54:34.363Z,17.13
2022-07-25T00:55:34.377Z,17.12
2022-07-25T00:56:34.408Z,17.08
2022-07-25T00:57:34.405Z,17.07
2022-07-25T00:58:34.393Z,17.04
2022-07-25T00:59:34.365Z,17.01
2022-07-25T01:00:34.397Z,17.06
2022-07-25T01:01:34.481Z,17.02
2022-07-25T01:02:34.450Z,17
2022-07-25T01:03:34.370Z,17
2022-07-25T01:04:34.375Z,17.02
2022-07-25T01:05:34.375Z,17.04
2022-07-25T01:06:34.422Z,17.03
2022-07-25T01:07:34.365Z,17
2022-07-25T01:08:34.358Z,16.95
2022-07-25T01:09:34.360Z,16.88
2022-07-25T01:10:34.397Z,16.79
2022-07-25T01:11:34.566Z,16.77
2022-07-25T01:12:34.487Z,16.76
2022-07-25T01:13:34.362Z,16.76
2022-07-25T01:14:34.368Z,17.03
2022-07-25T01:15:34.445Z,17.23
2022-07-25T01:16:34.379Z,17.23
2022-07-25T01:17:34.442Z,17.21
2022-07-25T01:18:34.422Z,17.19
2022-07-25T01:19:34.373Z,17.17
2022-07-25T01:20:34.369Z,17.2
2022-07-25T01:21:34.388Z,17.26
2022-07-25T01:22:34.387Z,17.24
2022-07-25T01:23:34.368Z,17.17
2022-07-25T01:24:34.383Z,17.13
2022-07-25T01:25:34.365Z,17.15
2022-07-25T01:26:34.409Z,17.14
2022-07-25T01:27:34.381Z,17.17
2022-07-25T01:28:34.507Z,17.17
2022-07-25T01:29:34.425Z,17.17
2022-07-25T01:30:34.381Z,17.12
2022-07-25T01:31:34.470Z,17.1
2022-07-25T01:32:34.405Z,17.17
2022-07-25T01:33:34.400Z,17.2
2022-07-25T01:34:34.424Z,17.22
2022-07-25T01:35:34.415Z,17.2
2022-07-25T01:36:34.493Z,17.07
2022-07-25T01:37:34.361Z,17
2022-07-25T01:38:34.403Z,16.98
2022-07-25T01:39:34.394Z,16.97
2022-07-25T01:40:34.384Z,16.99
2022-07-25T01:41:34.376Z,16.99
2022-07-25T01:42:34.365Z,17.02
2022-07-25T01:43:34.379Z,16.99
2022-07-25T01:44:34.365Z,16.99
2022-07-25T01:45:34.369Z,17.13
2022-07-25T01:46:34.494Z,17.26
2022-07-25T01:47:34.396Z,17.33
2022-07-25T01:48:34.397Z,17.3
2022-07-25T01:49:34.381Z,17.25
2022-07-25T01:50:34.368Z,17.23
2022-07-25T01:51:34.412Z,17.19
2022-07-25T01:52:34.374Z,17.14
2022-07-25T01:53:34.366Z,17.17
2022-07-25T01:54:34.371Z,17.23
2022-07-25T01:55:34.362Z,17.31
2022-07-25T01:56:34.385Z,17.36
2022-07-25T01:57:34.366Z,17.34
2022-07-25T01:58:34.363Z,17.34
2022-07-25T01:59:34.368Z,17.36
2022-07-25T02:00:34.376Z,17.38
2022-07-25T02:01:34.558Z,17.36
2022-07-25T02:02:34.381Z,17.52
2022-07-25T02:03:34.370Z,17.61
2022-07-25T02:04:34.505Z,17.68
2022-07-25T02:05:34.362Z,17.73
2022-07-25T02:06:34.380Z,17.76
2022-07-25T02:07:34.399Z,17.77
2022-07-25T02:08:34.359Z,17.81
2022-07-25T02:09:34.433Z,17.85
2022-07-25T02:10:34.442Z,17.91
2022-07-25T02:11:34.380Z,17.96
2022-07-25T02:12:34.363Z,17.99
2022-07-25T02:13:34.360Z,18.03
2022-07-25T02:14:34.385Z,18.07
2022-07-25T02:15:34.404Z,18.1
2022-07-25T02:16:34.436Z,18.12
2022-07-25T02:17:34.385Z,18.14
2022-07-25T02:18:34.516Z,18.16
2022-07-25T02:19:34.442Z,18.19
2022-07-25T02:20:34.387Z,18.18
2022-07-25T02:21:34.388Z,18.23
2022-07-25T02:22:34.391Z,18.25
2022-07-25T02:23:34.358Z,18.31
2022-07-25T02:24:34.363Z,18.34
2022-07-25T02:25:34.436Z,18.38
2022-07-25T02:26:34.380Z,18.41
2022-07-25T02:27:34.407Z,18.43
2022-07-25T02:28:34.364Z,18.44
2022-07-25T02:29:34.392Z,18.41
2022-07-25T02:30:34.538Z,18.38
2022-07-25T02:31:34.443Z,18.35
2022-07-25T02:32:34.363Z,18.31
2022-07-25T02:33:34.385Z,18.28
2022-07-25T02:34:34.411Z,18.26
2022-07-25T02:35:34.370Z,18.23
2022-07-25T02:36:34.382Z,18.2
2022-07-25T02:37:34.440Z,18.21
2022-07-25T02:38:34.471Z,18.19
2022-07-25T02:39:34.447Z,18.18
2022-07-25T02:40:34.394Z,18.16
2022-07-25T02:41:34.377Z,18.16
2022-07-25T02:42:34.363Z,18.13
2022-07-25T02:43:34.362Z,18.1
2022-07-25T02:44:34.364Z,18.05
2022-07-25T02:45:34.515Z,18.02
2022-07-25T02:46:34.507Z,17.98
2022-07-25T02:47:34.366Z,17.95
2022-07-25T02:48:34.445Z,17.92
2022-07-25T02:49:34.413Z,17.94
2022-07-25T02:50:34.419Z,17.99
2022-07-25T02:51:34.378Z,18.01
2022-07-25T02:52:34.396Z,18.03
2022-07-25T02:53:56.126Z,18.06
2022-07-25T02:54:34.403Z,18.09
2022-07-25T02:55:34.399Z,18.1
2022-07-25T02:56:34.415Z,18.1
2022-07-25T02:57:34.373Z,18.11
2022-07-25T02:58:34.377Z,18.1
2022-07-25T02:59:34.377Z,18.08
2022-07-25T03:00:34.369Z,18.09
2022-07-25T03:01:34.453Z,18.09
2022-07-25T03:02:34.389Z,18.09
2022-07-25T03:03:34.409Z,18.1
2022-07-25T03:04:34.474Z,18.11
2022-07-25T03:05:34.363Z,18.13
2022-07-25T03:06:34.371Z,18.16
2022-07-25T03:07:34.385Z,18.15
2022-07-25T03:08:34.368Z,18.15
2022-07-25T03:09:34.399Z,18.17
2022-07-25T03:10:34.382Z,18.2
2022-07-25T03:11:34.436Z,18.21
2022-07-25T03:12:34.382Z,18.2
2022-07-25T03:13:34.382Z,18.19
2022-07-25T03:14:34.384Z,18.2
2022-07-25T03:15:34.416Z,18.2
2022-07-25T03:16:34.499Z,18.23
2022-07-25T03:17:34.382Z,18.25
2022-07-25T03:18:34.381Z,18.26
2022-07-25T03:19:34.403Z,18.29
2022-07-25T03:20:34.408Z,18.32
2022-07-25T03:21:34.404Z,18.38
2022-07-25T03:22:34.382Z,18.38
2022-07-25T03:23:34.434Z,18.36
2022-07-25T03:24:34.391Z,18.35
2022-07-25T03:25:34.382Z,18.35
2022-07-25T03:26:34.424Z,18.35
2022-07-25T03:27:34.396Z,18.36
2022-07-25T03:28:34.398Z,18.37
2022-07-25T03:29:34.380Z,18.38
2022-07-25T03:30:34.382Z,18.41
2022-07-25T03:31:34.563Z,18.54
2022-07-25T03:32:34.382Z,18.76
2022-07-25T03:33:34.408Z,18.9
2022-07-25T03:34:34.396Z,19.02
2022-07-25T03:35:35.300Z,19.13
2022-07-25T03:36:34.397Z,19.21
2022-07-25T03:37:34.381Z,19.31
2022-07-25T03:38:34.452Z,19.45
2022-07-25T03:39:34.386Z,19.55
2022-07-25T03:40:34.438Z,19.62
2022-07-25T03:41:34.593Z,19.66
2022-07-25T03:42:35.574Z,19.67
2022-07-25T03:43:34.367Z,19.7
2022-07-25T03:44:34.438Z,19.72
2022-07-25T03:45:34.434Z,19.73
2022-07-25T03:46:34.421Z,19.77
2022-07-25T03:47:34.368Z,19.8
2022-07-25T03:48:34.568Z,19.8
2022-07-25T03:49:34.510Z,19.83
2022-07-25T03:50:34.371Z,19.9
2022-07-25T03:51:34.387Z,19.98
2022-07-25T03:52:34.404Z,20.1
2022-07-25T03:53:34.357Z,20.21
2022-07-25T03:54:34.391Z,20.38
2022-07-25T03:55:34.391Z,20.6
2022-07-25T03:56:34.423Z,20.76
2022-07-25T03:57:34.362Z,20.82
2022-07-25T03:58:34.362Z,20.82
2022-07-25T03:59:34.363Z,20.8
2022-07-25T04:00:34.406Z,20.78
2022-07-25T04:01:34.532Z,20.74
2022-07-25T04:02:34.514Z,20.79
2022-07-25T04:03:34.387Z,20.93
2022-07-25T04:04:34.411Z,21.09
2022-07-25T04:05:34.413Z,21.2
2022-07-25T04:06:34.425Z,21.22
2022-07-25T04:07:34.426Z,21.3
2022-07-25T04:08:34.386Z,21.36
2022-07-25T04:09:34.384Z,21.36
2022-07-25T04:10:34.395Z,21.32
2022-07-25T04:11:34.406Z,21.38
2022-07-25T04:12:34.380Z,21.46
2022-07-25T04:13:34.388Z,21.5
2022-07-25T04:14:34.419Z,21.55
2022-07-25T04:15:34.383Z,21.59
2022-07-25T04:16:34.487Z,21.66
2022-07-25T04:17:34.412Z,21.71
2022-07-25T04:18:34.408Z,21.71
2022-07-25T04:19:34.455Z,21.77
2022-07-25T04:20:34.400Z,21.84
2022-07-25T04:21:34.401Z,21.94
2022-07-25T04:22:34.384Z,22.05
2022-07-25T04:23:34.366Z,22.15
2022-07-25T04:24:34.369Z,22.35
2022-07-25T04:25:34.380Z,22.54
2022-07-25T04:26:34.376Z,22.7
2022-07-25T04:27:34.372Z,22.69
2022-07-25T04:28:34.395Z,22.7
2022-07-25T04:29:34.388Z,22.79
2022-07-25T04:30:34.363Z,22.93
2022-07-25T04:31:34.441Z,23.06
2022-07-25T04:32:34.367Z,23.16
2022-07-25T04:33:34.409Z,23.31
2022-07-25T04:34:34.428Z,23.31
2022-07-25T04:35:34.483Z,23.4
2022-07-25T04:36:34.371Z,23.39
2022-07-25T04:37:34.509Z,23.36
2022-07-25T04:38:34.371Z,23.43
2022-07-25T04:39:34.376Z,23.55
2022-07-25T04:40:34.447Z,23.66
2022-07-25T04:41:34.434Z,23.63
2022-07-25T04:42:34.392Z,23.63
2022-07-25T04:43:34.396Z,23.68
2022-07-25T04:44:34.404Z,23.74
2022-07-25T04:45:34.646Z,23.61
2022-07-25T04:46:34.367Z,23.69
2022-07-25T04:47:34.366Z,23.78
2022-07-25T04:48:34.440Z,23.87
2022-07-25T04:49:34.402Z,23.92
2022-07-25T04:50:34.365Z,24
2022-07-25T04:51:34.431Z,24.02
2022-07-25T04:52:34.401Z,24.05
2022-07-25T04:53:34.389Z,24.1
2022-07-25T04:54:34.360Z,24.12
2022-07-25T04:55:34.360Z,24.16
2022-07-25T04:56:34.374Z,24.21
2022-07-25T04:57:34.358Z,24.25
2022-07-25T04:58:34.364Z,24.27
2022-07-25T04:59:34.360Z,24.24
2022-07-25T05:00:34.412Z,24.19
2022-07-25T05:01:34.548Z,24.1
2022-07-25T05:02:34.442Z,24.02
2022-07-25T05:03:34.396Z,23.9
2022-07-25T05:04:35.025Z,23.83
2022-07-25T05:05:34.364Z,23.78
2022-07-25T05:06:34.390Z,23.78
2022-07-25T05:07:34.423Z,23.74
2022-07-25T05:08:34.414Z,23.74
2022-07-25T05:09:34.372Z,23.7
2022-07-25T05:10:34.400Z,23.67
2022-07-25T05:11:34.428Z,23.63
2022-07-25T05:12:34.380Z,23.68
2022-07-25T05:13:34.386Z,23.7
2022-07-25T05:14:34.378Z,23.7
2022-07-25T05:15:34.363Z,23.74
2022-07-25T05:16:34.458Z,23.81
2022-07-25T05:17:34.409Z,23.86
2022-07-25T05:18:34.402Z,23.86
2022-07-25T05:19:34.410Z,23.94
2022-07-25T05:20:34.380Z,23.91
2022-07-25T05:21:34.377Z,23.86
2022-07-25T05:22:34.364Z,23.84
2022-07-25T05:23:34.388Z,23.77
2022-07-25T05:24:34.404Z,23.73
2022-07-25T05:25:34.373Z,23.61
2022-07-25T05:26:34.397Z,23.6
2022-07-25T05:27:34.422Z,23.56
2022-07-25T05:28:34.378Z,23.59
2022-07-25T05:29:34.483Z,23.66
2022-07-25T05:30:39.444Z,23.69
2022-07-25T05:31:34.509Z,23.68
2022-07-25T05:32:34.406Z,23.68
2022-07-25T05:33:34.425Z,23.73
2022-07-25T05:34:34.381Z,23.77
2022-07-25T05:35:34.418Z,23.79
2022-07-25T05:36:34.456Z,23.85
2022-07-25T05:37:34.530Z,23.9
2022-07-25T05:38:34.423Z,23.9
2022-07-25T05:39:34.369Z,23.91
2022-07-25T05:40:34.366Z,23.95
2022-07-25T05:41:34.374Z,23.98
2022-07-25T05:42:34.405Z,23.97
2022-07-25T05:43:34.365Z,23.97
2022-07-25T05:44:34.361Z,23.97
2022-07-25T05:45:34.364Z,23.97
2022-07-25T05:46:34.513Z,24
2022-07-25T05:47:34.389Z,23.99
2022-07-25T05:48:34.448Z,23.96
2022-07-25T05:49:34.416Z,23.95
2022-07-25T05:50:34.359Z,23.95
2022-07-25T05:51:34.388Z,23.92
2022-07-25T05:52:34.419Z,23.87
2022-07-25T05:53:34.365Z,23.79
2022-07-25T05:54:34.369Z,23.75
2022-07-25T05:55:34.377Z,23.71
2022-07-25T05:56:34.399Z,23.66
2022-07-25T05:57:34.381Z,23.64
2022-07-25T05:58:34.380Z,23.62
2022-07-25T05:59:34.374Z,23.58
2022-07-25T06:00:34.415Z,23.56
2022-07-25T06:01:34.460Z,23.53
2022-07-25T06:02:34.508Z,23.51
2022-07-25T06:03:34.430Z,23.49
2022-07-25T06:04:34.437Z,23.49
2022-07-25T06:05:34.378Z,23.48
2022-07-25T06:06:34.388Z,23.46
2022-07-25T06:07:34.446Z,23.45
2022-07-25T06:08:34.388Z,23.43
2022-07-25T06:09:34.394Z,23.42
2022-07-25T06:10:34.420Z,23.42
2022-07-25T06:11:34.438Z,23.42
2022-07-25T06:12:34.461Z,23.42
2022-07-25T06:13:34.647Z,23.42
2022-07-25T06:14:34.372Z,23.44
2022-07-25T06:15:34.400Z,23.45
2022-07-25T06:16:34.474Z,23.46
2022-07-25T06:17:34.424Z,23.48
2022-07-25T06:18:34.438Z,23.5
2022-07-25T06:19:34.405Z,23.52
2022-07-25T06:20:34.405Z,23.54
2022-07-25T06:21:34.446Z,23.56
2022-07-25T06:22:34.412Z,23.57
2022-07-25T06:23:34.379Z,23.57
2022-07-25T06:24:34.404Z,23.57
2022-07-25T06:25:34.384Z,23.58
2022-07-25T06:26:34.412Z,23.58
2022-07-25T06:27:34.380Z,23.59
2022-07-25T06:28:34.376Z,23.6
2022-07-25T06:29:34.382Z,23.61
2022-07-25T06:30:34.416Z,23.61
2022-07-25T06:31:34.474Z,23.64
2022-07-25T06:32:34.379Z,23.64
2022-07-25T06:33:34.420Z,23.65
2022-07-25T06:34:34.377Z,23.66
2022-07-25T06:35:34.374Z,23.66
2022-07-25T06:36:34.389Z,23.66
2022-07-25T06:37:34.383Z,23.67
2022-07-25T06:38:34.441Z,23.68
2022-07-25T06:39:34.376Z,23.69
2022-07-25T06:40:34.416Z,23.7
2022-07-25T06:41:34.409Z,23.72
2022-07-25T06:42:34.382Z,23.74
2022-07-25T06:43:34.410Z,23.74
2022-07-25T06:44:34.380Z,23.74
2022-07-25T06:45:34.387Z,23.77
2022-07-25T06:46:34.535Z,23.78
2022-07-25T06:47:36.188Z,23.8
2022-07-25T06:48:34.481Z,23.82
2022-07-25T06:49:34.385Z,23.84
2022-07-25T06:50:34.504Z,23.86
2022-07-25T06:51:34.506Z,23.89
2022-07-25T06:52:34.377Z,23.9
2022-07-25T06:53:34.388Z,23.91
2022-07-25T06:54:34.379Z,23.92
2022-07-25T06:55:34.392Z,23.92
2022-07-25T06:56:34.452Z,23.92
2022-07-25T06:57:34.376Z,23.92
2022-07-25T06:58:34.463Z,23.92
2022-07-25T06:59:34.574Z,23.91
2022-07-25T07:00:34.485Z,23.92
2022-07-25T07:01:34.502Z,23.92
2022-07-25T07:02:34.401Z,23.92
2022-07-25T07:03:34.438Z,23.93
2022-07-25T07:04:34.541Z,23.94
2022-07-25T07:05:34.464Z,23.95
2022-07-25T07:06:34.440Z,23.96
2022-07-25T07:07:34.423Z,23.98
2022-07-25T07:08:34.376Z,23.99
2022-07-25T07:09:34.460Z,23.99
2022-07-25T07:10:34.440Z,24
2022-07-25T07:11:34.402Z,24
2022-07-25T07:12:34.379Z,24.01
2022-07-25T07:13:34.378Z,24.02
2022-07-25T07:14:34.372Z,24.03
2022-07-25T07:15:34.399Z,24.05
2022-07-25T07:16:34.535Z,24.05
2022-07-25T07:17:34.456Z,24.04
2022-07-25T07:18:34.377Z,24.06
2022-07-25T07:19:34.411Z,24.06
2022-07-25T07:20:40.932Z,24.07
2022-07-25T07:21:39.402Z,24.08
2022-07-25T07:22:39.337Z,24.09
2022-07-25T07:23:39.368Z,24.1
2022-07-25T07:24:44.087Z,24.11
2022-07-25T07:25:39.366Z,24.11
2022-07-25T07:26:39.340Z,24.13
2022-07-25T07:27:39.317Z,24.15
2022-07-25T07:28:39.285Z,24.16
2022-07-25T07:29:39.339Z,24.17
2022-07-25T07:31:13.293Z,24.17
2022-07-25T07:31:39.350Z,24.18
2022-07-25T07:32:39.299Z,24.19
2022-07-25T07:33:39.312Z,24.2
2022-07-25T07:34:39.336Z,24.21
2022-07-25T07:35:39.307Z,24.23
2022-07-25T07:36:39.354Z,24.24
2022-07-25T07:37:43.478Z,24.25
2022-07-25T07:38:39.290Z,24.26
2022-07-25T07:39:39.347Z,24.26
2022-07-25T07:40:39.292Z,24.29
2022-07-25T07:41:39.304Z,24.31
2022-07-25T07:42:39.329Z,24.32
2022-07-25T07:43:39.291Z,24.33
2022-07-25T07:44:39.286Z,24.35
2022-07-25T07:45:39.343Z,24.37
2022-07-25T07:46:39.415Z,24.39
2022-07-25T07:47:39.341Z,24.41
2022-07-25T07:48:39.323Z,24.43
2022-07-25T07:49:39.283Z,24.44
2022-07-25T07:50:39.317Z,24.46
2022-07-25T07:51:39.312Z,24.47
2022-07-25T07:52:39.367Z,24.49
2022-07-25T07:53:39.295Z,24.5
2022-07-25T07:54:39.291Z,24.51
2022-07-25T07:55:39.295Z,24.52
2022-07-25T07:56:39.312Z,24.53
2022-07-25T07:57:39.312Z,24.56
2022-07-25T07:58:39.331Z,24.57
2022-07-25T07:59:39.302Z,24.59
2022-07-25T08:00:39.303Z,24.6
2022-07-25T08:01:39.451Z,24.65
2022-07-25T08:02:39.336Z,24.66
2022-07-25T08:03:39.285Z,24.68
2022-07-25T08:04:39.290Z,24.69
2022-07-25T09:16:32.106Z,25.52
2022-07-25T09:16:45.314Z,25.53
2022-07-25T09:17:45.073Z,25.55
2022-07-25T09:18:45.033Z,25.57
2022-07-25T09:19:45.012Z,25.57
2022-07-25T09:20:45.059Z,25.57
2022-07-25T09:21:45.579Z,25.58
2022-07-25T09:22:44.970Z,25.59
2022-07-25T09:23:44.918Z,25.57
2022-07-25T09:24:44.945Z,25.57
2022-07-25T09:25:44.933Z,25.58
2022-07-25T09:26:44.958Z,25.68
2022-07-25T09:27:44.937Z,25.65
2022-07-25T09:28:44.977Z,25.65
2022-07-25T09:29:44.952Z,25.66
2022-07-25T09:30:45.004Z,25.68
2022-07-25T09:31:44.995Z,25.68
2022-07-25T09:32:52.783Z,25.68
2022-07-25T09:33:44.927Z,25.7
2022-07-25T09:34:44.971Z,25.7
2022-07-25T09:35:44.924Z,25.71
2022-07-25T09:57:51.331Z,25.73
2022-07-25T09:57:51.413Z,25.73
2022-07-25T09:58:22.240Z,25.73
2022-07-25T09:59:22.169Z,25.98
2022-07-25T10:00:42.726Z,25.98
2022-07-25T10:01:34.270Z,25.98
2022-07-25T10:02:22.148Z,25.96
2022-07-25T10:03:22.105Z,25.97
2022-07-25T10:04:22.113Z,26.02
2022-07-25T10:05:22.110Z,26.02
2022-07-25T10:06:22.094Z,26.05
2022-07-25T10:07:22.083Z,26.06
2022-07-25T10:08:22.081Z,26.13
2022-07-25T10:09:22.095Z,26.09
2022-07-25T10:10:22.106Z,26.09
2022-07-25T10:11:22.088Z,26.06
2022-07-25T10:12:38.275Z,26.06
2022-07-25T10:13:57.695Z,26.07
2022-07-25T10:14:22.079Z,26.05
2022-07-25T10:15:22.107Z,26.05
2022-07-25T10:16:22.175Z,26.06
2022-07-25T10:17:32.288Z,26.08
2022-07-25T10:18:22.170Z,26.08
2022-07-25T10:19:22.085Z,26.08
2022-07-25T10:20:22.106Z,26.12
2022-07-25T10:21:26.283Z,26.15
2022-07-25T10:22:39.682Z,26.18
2022-07-25T10:23:22.112Z,26.21
2022-07-25T10:24:22.118Z,26.21
2022-07-25T10:25:22.103Z,26.21
2022-07-25T10:26:22.078Z,26.22
2022-07-25T10:27:22.084Z,26.22
2022-07-25T10:29:35.688Z,26.24
2022-07-25T10:29:35.732Z,26.24
2022-07-25T10:30:22.094Z,26.32
2022-07-25T10:31:22.260Z,26.34
2022-07-25T10:32:22.106Z,26.36
2022-07-25T10:33:22.080Z,26.36
2022-07-25T10:34:22.084Z,26.37
2022-07-25T10:35:22.097Z,26.37
2022-07-25T10:36:22.090Z,26.37
2022-07-25T10:37:22.124Z,26.42
2022-07-25T10:38:29.722Z,26.42
2022-07-25T10:39:22.103Z,26.48
2022-07-25T10:40:22.123Z,26.48
2022-07-25T10:41:22.082Z,26.5
2022-07-25T10:42:22.086Z,26.5
2022-07-25T10:43:22.072Z,26.51
2022-07-25T10:44:22.088Z,26.57
2022-07-25T10:45:22.092Z,26.57
2022-07-25T10:46:22.197Z,26.57
2022-07-25T10:47:22.067Z,26.64
2022-07-25T10:48:22.075Z,26.64
2022-07-25T10:49:29.109Z,26.7
2022-07-25T10:50:46.183Z,26.76
2022-07-25T10:51:22.081Z,26.8
2022-07-25T10:52:22.085Z,26.96
2022-07-25T10:53:22.085Z,26.96
2022-07-25T10:54:22.085Z,26.96
2022-07-25T10:55:22.103Z,26.96
2022-07-25T10:56:22.099Z,26.97
2022-07-25T10:57:22.089Z,27.14
2022-07-25T10:58:42.400Z,27.2
2022-07-25T10:59:30.466Z,27.24
2022-07-25T11:00:22.104Z,27.27
2022-07-25T11:01:22.167Z,27.27
2022-07-25T11:02:42.388Z,27.31
2022-07-25T11:03:22.086Z,27.39
2022-07-25T11:04:32.305Z,27.39
2022-07-25T11:05:22.086Z,27.44
2022-07-25T11:06:22.083Z,27.51
2022-07-25T11:07:22.082Z,27.51
2022-07-25T11:08:22.787Z,27.61
2022-07-25T11:09:26.851Z,27.61
2022-07-25T11:10:22.087Z,27.61
2022-07-25T11:11:22.097Z,27.61
2022-07-25T11:12:22.075Z,27.62
2022-07-25T11:13:22.090Z,27.62
2022-07-25T11:14:23.809Z,27.62
2022-07-25T11:15:57.769Z,27.6
2022-07-25T11:16:43.107Z,27.72
2022-07-25T11:17:44.776Z,27.72
2022-07-25T11:18:22.102Z,27.69
2022-07-25T11:19:22.081Z,27.7
2022-07-25T11:20:28.025Z,27.73
2022-07-25T11:21:22.087Z,27.73
2022-07-25T11:22:22.093Z,27.79
2022-07-25T11:23:22.102Z,27.83
2022-07-25T11:24:22.088Z,27.81
2022-07-25T11:25:22.100Z,27.88
2022-07-25T11:26:22.068Z,27.85
2022-07-25T11:27:22.069Z,27.85
2022-07-25T11:28:22.074Z,27.86
2022-07-25T11:29:22.087Z,27.9
2022-07-25T11:30:22.072Z,27.9
2022-07-25T11:31:22.107Z,27.9
2022-07-25T11:32:22.061Z,27.9
2022-07-25T11:33:52.415Z,27.96
2022-07-25T11:34:42.410Z,27.96
2022-07-25T11:35:22.103Z,27.99
2022-07-25T11:36:30.159Z,28.02
2022-07-25T11:37:27.589Z,28.06
2022-07-25T11:38:22.134Z,28.03
2022-07-25T11:39:22.077Z,28.04
2022-07-25T11:40:22.089Z,28.04
2022-07-25T11:41:35.127Z,28.06
2022-07-25T11:42:22.073Z,28.07
2022-07-25T11:43:43.670Z,28.1
2022-07-25T11:44:22.075Z,28.09
2022-07-25T11:45:22.081Z,28.1
2022-07-25T11:46:22.146Z,28.1
2022-07-25T11:47:22.068Z,28.08
2022-07-25T11:48:22.073Z,28.08
2022-07-25T11:49:22.142Z,28.07
2022-07-25T11:50:23.789Z,28.07
2022-07-25T11:51:22.076Z,28.05
2022-07-25T11:52:22.082Z,28.03
2022-07-25T11:53:22.087Z,28.03
2022-07-25T11:54:40.474Z,28.03
2022-07-25T11:55:22.109Z,28.05
2022-07-25T11:56:40.881Z,28.07
2022-07-25T11:57:22.086Z,28.07
2022-07-25T11:58:22.071Z,28.13
2022-07-25T11:59:22.072Z,28.21
2022-07-25T12:00:22.081Z,28.23
2022-07-25T12:01:22.265Z,28.26
2022-07-25T12:02:22.190Z,28.27
2022-07-25T12:03:22.279Z,28.27
2022-07-25T12:04:22.073Z,28.29
2022-07-25T12:05:22.080Z,28.29
2022-07-25T12:06:22.098Z,28.36
2022-07-25T12:07:22.080Z,28.39
2022-07-25T12:08:22.091Z,28.42
2022-07-25T12:09:50.364Z,28.42
2022-07-25T12:10:22.093Z,28.44
2022-07-25T12:11:22.073Z,28.45
2022-07-25T12:12:22.071Z,28.43
2022-07-25T12:13:22.080Z,28.42
2022-07-25T12:14:22.100Z,28.42
2022-07-25T12:15:22.083Z,28.46
2022-07-25T12:16:22.147Z,28.46
2022-07-25T12:17:22.097Z,28.45
2022-07-25T12:18:22.073Z,28.44
2022-07-25T12:19:22.096Z,28.42
2022-07-25T12:20:22.090Z,28.43
2022-07-25T12:21:22.077Z,28.45
2022-07-25T12:22:22.072Z,28.47
2022-07-25T12:23:22.165Z,28.52
2022-07-25T12:24:50.888Z,28.52
2022-07-25T12:25:22.095Z,28.59
2022-07-25T12:26:44.712Z,28.63
2022-07-25T12:27:22.074Z,28.63
2022-07-25T12:28:22.075Z,28.72
2022-07-25T12:29:22.075Z,28.71
2022-07-25T12:31:04.336Z,28.71
2022-07-25T12:31:32.071Z,28.71
2022-07-25T12:32:22.087Z,28.72
2022-07-25T12:33:22.083Z,28.81
2022-07-25T12:34:22.078Z,28.77
2022-07-25T12:35:22.074Z,28.77
2022-07-25T12:36:23.753Z,28.75
2022-07-25T12:37:22.085Z,28.75
2022-07-25T12:38:22.083Z,28.74
2022-07-25T12:39:22.077Z,28.74
2022-07-25T12:40:22.354Z,28.78
2022-07-25T12:41:22.082Z,28.83
2022-07-25T12:42:22.071Z,28.83
2022-07-25T12:43:46.598Z,28.85
2022-07-25T12:44:22.086Z,28.88
2022-07-25T12:45:22.071Z,28.88
2022-07-25T12:46:22.117Z,28.89
2022-07-25T12:47:22.114Z,28.89
2022-07-25T12:48:22.122Z,28.93
2022-07-25T12:49:31.171Z,28.93
2022-07-25T12:50:22.076Z,28.93
2022-07-25T12:51:22.089Z,28.97
2022-07-25T12:52:22.079Z,29.02
2022-07-25T12:53:22.079Z,29.02
2022-07-25T12:54:22.656Z,29.04
2022-07-25T12:55:22.091Z,29.05
2022-07-25T12:56:22.082Z,29.05
2022-07-25T12:57:33.387Z,29.07
2022-07-25T12:58:27.331Z,29.07
2022-07-25T12:59:22.084Z,29.07
2022-07-25T13:00:22.101Z,29.06
2022-07-25T13:01:22.124Z,29.07
2022-07-25T13:02:22.181Z,29.07
2022-07-25T13:03:22.075Z,29.08
2022-07-25T13:04:22.078Z,29.12
2022-07-25T13:05:22.075Z,29.15
2022-07-25T13:06:22.087Z,29.15
2022-07-25T13:07:22.084Z,29.17
2022-07-25T13:08:22.108Z,29.18
2022-07-25T13:09:22.086Z,29.18
2022-07-25T13:10:22.086Z,29.18
2022-07-25T13:11:26.666Z,29.16
2022-07-25T13:12:22.077Z,29.14
2022-07-25T13:13:22.105Z,29.12
2022-07-25T13:14:22.080Z,29.11
2022-07-25T13:15:22.077Z,29.13
2022-07-25T13:16:22.173Z,29.13
2022-07-25T13:17:26.687Z,29.18
2022-07-25T13:18:33.514Z,29.18
2022-07-25T13:19:22.083Z,29.21
2022-07-25T13:20:22.084Z,29.21
2022-07-25T13:21:22.118Z,29.28
2022-07-25T13:22:22.093Z,29.32
2022-07-25T13:23:22.084Z,29.32
2022-07-25T13:24:22.836Z,29.34
2022-07-25T13:25:22.082Z,29.46
2022-07-25T13:26:22.101Z,29.39
2022-07-25T13:27:22.079Z,29.39
2022-07-25T13:28:22.077Z,29.4
2022-07-25T13:29:22.081Z,29.4
2022-07-25T13:30:22.093Z,29.4
2022-07-25T13:31:52.982Z,29.4
2022-07-25T13:32:22.093Z,29.37
2022-07-25T13:33:41.150Z,29.37
2022-07-25T13:34:22.077Z,29.38
2022-07-25T13:35:24.703Z,29.39
2022-07-25T13:36:22.078Z,29.38
2022-07-25T13:37:33.939Z,29.38
2022-07-25T13:38:22.078Z,29.38
2022-07-25T13:39:22.082Z,29.48
2022-07-25T13:40:22.078Z,29.48
2022-07-25T13:41:22.087Z,29.48
2022-07-25T13:42:22.081Z,29.36
2022-07-25T13:43:22.096Z,29.36
2022-07-25T13:44:22.097Z,29.37
2022-07-25T13:45:22.101Z,29.4
2022-07-25T13:46:22.172Z,29.42
2022-07-25T13:47:25.664Z,29.47
2022-07-25T13:49:22.169Z,29.47
2022-07-25T13:50:23.370Z,29.47
2022-07-25T13:51:22.076Z,29.47
2022-07-25T13:52:22.087Z,29.48
2022-07-25T13:53:25.511Z,29.48
2022-07-25T13:54:22.087Z,29.44
2022-07-25T13:55:32.441Z,29.38
2022-07-25T13:56:22.080Z,29.38
2022-07-25T13:57:22.084Z,29.35
2022-07-25T13:58:33.758Z,29.35
2022-07-25T13:59:22.237Z,29.36
2022-07-25T14:00:22.079Z,29.34
2022-07-25T14:01:23.716Z,29.34
2022-07-25T14:02:22.189Z,29.32
2022-07-25T14:03:26.025Z,29.33
2022-07-25T14:04:22.773Z,29.33
2022-07-25T14:05:22.087Z,29.34
2022-07-25T14:06:22.085Z,29.33
2022-07-25T14:07:22.102Z,29.33
2022-07-25T14:08:22.094Z,29.32
2022-07-25T14:09:22.078Z,29.35
2022-07-25T14:10:22.090Z,29.37
2022-07-25T14:11:23.946Z,29.37
2022-07-25T14:12:22.101Z,29.4
2022-07-25T14:13:38.603Z,29.41
2022-07-25T14:14:22.083Z,29.42
2022-07-25T14:15:22.077Z,29.42
2022-07-25T14:16:23.114Z,29.45
2022-07-25T14:17:25.787Z,29.49
2022-07-25T14:18:22.075Z,29.6
2022-07-25T14:19:22.075Z,29.6
2022-07-25T14:20:22.129Z,29.64
2022-07-25T14:21:22.089Z,29.67
2022-07-25T14:22:22.100Z,29.86
2022-07-25T14:23:28.134Z,29.86
2022-07-25T14:24:22.083Z,29.86
2022-07-25T14:25:22.091Z,29.85
2022-07-25T14:26:22.092Z,29.83